sensor_id;sensor_type;location;lat;lon;timestamp;temperature;humidity
23323;DHT22;11833;52.554;13.554;2024-03-06T00:00:57;5.30;97.40
23323;DHT22;11833;52.554;13.554;2024-03-06T00:03:23;5.20;97.40
23323;DHT22;11833;52.554;13.554;2024-03-06T00:05:49;5.20;97.70
23323;DHT22;11833;52.554;13.554;2024-03-06T00:08:15;5.10;97.90
23323;DHT22;11833;52.554;13.554;2024-03-06T00:10:41;5.10;98.10
23323;DHT22;11833;52.554;13.554;2024-03-06T00:13:07;5.00;98.30
23323;DHT22;11833;52.554;13.554;2024-03-06T00:15:33;4.90;98.60
23323;DHT22;11833;52.554;13.554;2024-03-06T00:18:00;4.80;98.70
23323;DHT22;11833;52.554;13.554;2024-03-06T00:20:26;4.80;98.90
23323;DHT22;11833;52.554;13.554;2024-03-06T00:22:52;4.70;99.20
23323;DHT22;11833;52.554;13.554;2024-03-06T00:25:17;4.60;99.50
23323;DHT22;11833;52.554;13.554;2024-03-06T00:27:43;4.60;99.90
23323;DHT22;11833;52.554;13.554;2024-03-06T00:30:09;4.50;99.90
23323;DHT22;11833;52.554;13.554;2024-03-06T00:32:36;4.40;99.90
23323;DHT22;11833;52.554;13.554;2024-03-06T00:35:01;4.40;99.90
23323;DHT22;11833;52.554;13.554;2024-03-06T00:37:27;4.40;99.90
23323;DHT22;11833;52.554;13.554;2024-03-06T00:39:53;4.40;99.90
23323;DHT22;11833;52.554;13.554;2024-03-06T00:42:19;4.30;99.90
23323;DHT22;11833;52.554;13.554;2024-03-06T00:44:44;4.40;99.90
23323;DHT22;11833;52.554;13.554;2024-03-06T00:47:10;4.30;99.90
23323;DHT22;11833;52.554;13.554;2024-03-06T00:49:36;4.30;99.90
23323;DHT22;11833;52.554;13.554;2024-03-06T00:52:02;4.20;99.90
23323;DHT22;11833;52.554;13.554;2024-03-06T00:54:29;4.20;99.90
23323;DHT22;11833;52.554;13.554;2024-03-06T00:56:55;4.20;99.90
23323;DHT22;11833;52.554;13.554;2024-03-06T00:59:20;4.20;99.90
23323;DHT22;11833;52.554;13.554;2024-03-06T01:01:46;4.20;99.90
23323;DHT22;11833;52.554;13.554;2024-03-06T01:04:12;4.20;99.90
23323;DHT22;11833;52.554;13.554;2024-03-06T01:06:38;4.20;99.90
23323;DHT22;11833;52.554;13.554;2024-03-06T01:09:03;4.20;99.90
23323;DHT22;11833;52.554;13.554;2024-03-06T01:11:29;4.20;99.90
23323;DHT22;11833;52.554;13.554;2024-03-06T01:13:55;4.10;99.90
23323;DHT22;11833;52.554;13.554;2024-03-06T01:16:21;4.10;99.90
23323;DHT22;11833;52.554;13.554;2024-03-06T01:18:46;4.10;99.90
23323;DHT22;11833;52.554;13.554;2024-03-06T01:21:12;4.10;99.90
23323;DHT22;11833;52.554;13.554;2024-03-06T01:23:38;4.00;99.90
23323;DHT22;11833;52.554;13.554;2024-03-06T01:26:04;4.00;99.90
23323;DHT22;11833;52.554;13.554;2024-03-06T01:28:30;4.00;99.90
23323;DHT22;11833;52.554;13.554;2024-03-06T01:30:55;3.90;99.90
23323;DHT22;11833;52.554;13.554;2024-03-06T01:33:21;3.90;99.90
23323;DHT22;11833;52.554;13.554;2024-03-06T01:35:47;3.90;99.90
23323;DHT22;11833;52.554;13.554;2024-03-06T01:38:12;3.90;99.90
23323;DHT22;11833;52.554;13.554;2024-03-06T01:40:43;3.90;99.90
23323;DHT22;11833;52.554;13.554;2024-03-06T01:43:20;3.90;99.90
23323;DHT22;11833;52.554;13.554;2024-03-06T01:45:48;3.80;99.90
23323;DHT22;11833;52.554;13.554;2024-03-06T01:48:15;3.80;99.90
23323;DHT22;11833;52.554;13.554;2024-03-06T01:50:42;3.80;99.90
23323;DHT22;11833;52.554;13.554;2024-03-06T01:53:08;3.80;99.90
23323;DHT22;11833;52.554;13.554;2024-03-06T01:55:35;3.80;99.90
23323;DHT22;11833;52.554;13.554;2024-03-06T01:58:01;3.80;99.90
23323;DHT22;11833;52.554;13.554;2024-03-06T02:00:28;3.80;99.90
23323;DHT22;11833;52.554;13.554;2024-03-06T02:02:54;3.70;99.90
23323;DHT22;11833;52.554;13.554;2024-03-06T02:05:19;3.70;99.90
23323;DHT22;11833;52.554;13.554;2024-03-06T02:07:47;3.70;99.90
23323;DHT22;11833;52.554;13.554;2024-03-06T02:10:12;3.70;99.90
23323;DHT22;11833;52.554;13.554;2024-03-06T02:12:38;3.70;99.90
23323;DHT22;11833;52.554;13.554;2024-03-06T02:15:05;3.60;99.90
23323;DHT22;11833;52.554;13.554;2024-03-06T02:17:31;3.60;99.90
23323;DHT22;11833;52.554;13.554;2024-03-06T02:19:57;3.50;99.90
23323;DHT22;11833;52.554;13.554;2024-03-06T02:22:23;3.60;99.90
23323;DHT22;11833;52.554;13.554;2024-03-06T02:24:49;3.50;99.90
23323;DHT22;11833;52.554;13.554;2024-03-06T02:27:15;3.50;99.90
23323;DHT22;11833;52.554;13.554;2024-03-06T02:29:42;3.50;99.90
23323;DHT22;11833;52.554;13.554;2024-03-06T02:32:09;3.50;99.90
23323;DHT22;11833;52.554;13.554;2024-03-06T02:34:34;3.50;99.90
23323;DHT22;11833;52.554;13.554;2024-03-06T02:37:00;3.50;99.90
23323;DHT22;11833;52.554;13.554;2024-03-06T02:39:26;3.50;99.90
23323;DHT22;11833;52.554;13.554;2024-03-06T02:41:52;3.50;99.90
23323;DHT22;11833;52.554;13.554;2024-03-06T02:44:17;3.30;99.90
23323;DHT22;11833;52.554;13.554;2024-03-06T02:46:47;3.30;99.90
23323;DHT22;11833;52.554;13.554;2024-03-06T02:49:17;3.30;99.90
23323;DHT22;11833;52.554;13.554;2024-03-06T02:51:43;3.20;99.90
23323;DHT22;11833;52.554;13.554;2024-03-06T02:54:09;3.20;99.90
23323;DHT22;11833;52.554;13.554;2024-03-06T02:56:35;3.20;99.90
23323;DHT22;11833;52.554;13.554;2024-03-06T02:59:01;3.20;99.90
23323;DHT22;11833;52.554;13.554;2024-03-06T03:01:28;3.20;99.90
23323;DHT22;11833;52.554;13.554;2024-03-06T03:03:55;3.20;99.90
23323;DHT22;11833;52.554;13.554;2024-03-06T03:06:21;3.20;99.90
23323;DHT22;11833;52.554;13.554;2024-03-06T03:08:49;3.20;99.90
23323;DHT22;11833;52.554;13.554;2024-03-06T03:11:15;3.20;99.90
23323;DHT22;11833;52.554;13.554;2024-03-06T03:13:42;3.20;99.90
23323;DHT22;11833;52.554;13.554;2024-03-06T03:16:15;3.10;99.90
23323;DHT22;11833;52.554;13.554;2024-03-06T03:18:43;3.20;99.90
23323;DHT22;11833;52.554;13.554;2024-03-06T03:21:09;3.00;99.90
23323;DHT22;11833;52.554;13.554;2024-03-06T03:23:36;2.90;99.90
23323;DHT22;11833;52.554;13.554;2024-03-06T03:26:02;2.90;99.90
23323;DHT22;11833;52.554;13.554;2024-03-06T03:28:29;2.90;99.90
23323;DHT22;11833;52.554;13.554;2024-03-06T03:30:55;2.80;99.90
23323;DHT22;11833;52.554;13.554;2024-03-06T03:33:22;2.80;99.90
23323;DHT22;11833;52.554;13.554;2024-03-06T03:35:48;2.80;99.90
23323;DHT22;11833;52.554;13.554;2024-03-06T03:38:14;2.90;99.90
23323;DHT22;11833;52.554;13.554;2024-03-06T03:40:39;2.80;99.90
23323;DHT22;11833;52.554;13.554;2024-03-06T03:43:05;2.80;99.90
23323;DHT22;11833;52.554;13.554;2024-03-06T03:45:34;2.70;99.90
23323;DHT22;11833;52.554;13.554;2024-03-06T03:48:04;2.80;99.90
23323;DHT22;11833;52.554;13.554;2024-03-06T03:50:30;2.80;99.90
23323;DHT22;11833;52.554;13.554;2024-03-06T03:52:57;2.90;99.90
23323;DHT22;11833;52.554;13.554;2024-03-06T03:55:26;2.80;99.90
23323;DHT22;11833;52.554;13.554;2024-03-06T03:57:52;2.70;99.90
23323;DHT22;11833;52.554;13.554;2024-03-06T04:00:19;2.70;99.90
23323;DHT22;11833;52.554;13.554;2024-03-06T04:02:45;2.60;99.90
23323;DHT22;11833;52.554;13.554;2024-03-06T04:05:11;2.60;99.90
23323;DHT22;11833;52.554;13.554;2024-03-06T04:07:38;2.60;99.90
23323;DHT22;11833;52.554;13.554;2024-03-06T04:10:04;2.70;99.90
23323;DHT22;11833;52.554;13.554;2024-03-06T04:12:30;2.70;99.90
23323;DHT22;11833;52.554;13.554;2024-03-06T04:14:56;2.70;99.90
23323;DHT22;11833;52.554;13.554;2024-03-06T04:17:22;2.60;99.90
23323;DHT22;11833;52.554;13.554;2024-03-06T04:19:48;2.70;99.90
23323;DHT22;11833;52.554;13.554;2024-03-06T04:22:14;2.70;99.90
23323;DHT22;11833;52.554;13.554;2024-03-06T04:24:43;2.70;99.90
23323;DHT22;11833;52.554;13.554;2024-03-06T04:27:10;2.70;99.90
23323;DHT22;11833;52.554;13.554;2024-03-06T04:29:36;2.70;99.90
23323;DHT22;11833;52.554;13.554;2024-03-06T04:32:01;2.60;99.90
23323;DHT22;11833;52.554;13.554;2024-03-06T04:34:27;2.60;99.90
23323;DHT22;11833;52.554;13.554;2024-03-06T04:36:53;2.40;99.90
23323;DHT22;11833;52.554;13.554;2024-03-06T04:39:18;2.50;99.90
23323;DHT22;11833;52.554;13.554;2024-03-06T04:41:44;2.50;99.90
23323;DHT22;11833;52.554;13.554;2024-03-06T04:44:10;2.50;99.90
23323;DHT22;11833;52.554;13.554;2024-03-06T04:46:35;2.50;99.90
23323;DHT22;11833;52.554;13.554;2024-03-06T04:49:01;2.60;99.90
23323;DHT22;11833;52.554;13.554;2024-03-06T04:51:27;2.50;99.90
23323;DHT22;11833;52.554;13.554;2024-03-06T04:53:53;2.40;99.90
23323;DHT22;11833;52.554;13.554;2024-03-06T04:56:19;2.40;99.90
23323;DHT22;11833;52.554;13.554;2024-03-06T04:58:46;2.40;99.90
23323;DHT22;11833;52.554;13.554;2024-03-06T05:01:12;2.40;99.90
23323;DHT22;11833;52.554;13.554;2024-03-06T05:03:38;2.40;99.90
23323;DHT22;11833;52.554;13.554;2024-03-06T05:06:05;2.40;99.90
23323;DHT22;11833;52.554;13.554;2024-03-06T05:08:31;2.40;99.90
23323;DHT22;11833;52.554;13.554;2024-03-06T05:10:59;2.40;99.90
23323;DHT22;11833;52.554;13.554;2024-03-06T05:13:26;2.40;99.90
23323;DHT22;11833;52.554;13.554;2024-03-06T05:15:52;2.30;99.90
23323;DHT22;11833;52.554;13.554;2024-03-06T05:18:19;2.30;99.90
23323;DHT22;11833;52.554;13.554;2024-03-06T05:20:45;2.20;99.90
23323;DHT22;11833;52.554;13.554;2024-03-06T05:23:12;2.30;99.90
23323;DHT22;11833;52.554;13.554;2024-03-06T05:25:38;2.40;99.90
23323;DHT22;11833;52.554;13.554;2024-03-06T05:28:04;2.40;99.90
23323;DHT22;11833;52.554;13.554;2024-03-06T05:30:30;2.30;99.90
23323;DHT22;11833;52.554;13.554;2024-03-06T05:32:56;2.30;99.90
23323;DHT22;11833;52.554;13.554;2024-03-06T05:35:22;2.30;99.90
23323;DHT22;11833;52.554;13.554;2024-03-06T05:37:48;2.30;99.90
23323;DHT22;11833;52.554;13.554;2024-03-06T05:40:13;2.30;99.90
23323;DHT22;11833;52.554;13.554;2024-03-06T05:42:39;2.40;99.90
23323;DHT22;11833;52.554;13.554;2024-03-06T05:45:06;2.40;99.90
23323;DHT22;11833;52.554;13.554;2024-03-06T05:47:36;2.40;99.90
23323;DHT22;11833;52.554;13.554;2024-03-06T05:50:04;2.30;99.90
23323;DHT22;11833;52.554;13.554;2024-03-06T05:52:31;2.30;99.90
23323;DHT22;11833;52.554;13.554;2024-03-06T05:54:58;2.30;99.90
23323;DHT22;11833;52.554;13.554;2024-03-06T05:57:23;2.20;99.90
23323;DHT22;11833;52.554;13.554;2024-03-06T05:59:50;2.30;99.90
23323;DHT22;11833;52.554;13.554;2024-03-06T06:02:15;2.20;99.90
23323;DHT22;11833;52.554;13.554;2024-03-06T06:04:45;2.20;99.90
23323;DHT22;11833;52.554;13.554;2024-03-06T06:07:11;2.20;99.90
23323;DHT22;11833;52.554;13.554;2024-03-06T06:09:37;2.30;99.90
23323;DHT22;11833;52.554;13.554;2024-03-06T06:12:02;2.30;99.90
23323;DHT22;11833;52.554;13.554;2024-03-06T06:14:28;2.30;99.90
23323;DHT22;11833;52.554;13.554;2024-03-06T06:16:56;2.20;99.90
23323;DHT22;11833;52.554;13.554;2024-03-06T06:19:22;2.30;99.90
23323;DHT22;11833;52.554;13.554;2024-03-06T06:21:47;2.30;99.90
23323;DHT22;11833;52.554;13.554;2024-03-06T06:24:13;2.30;99.90
23323;DHT22;11833;52.554;13.554;2024-03-06T06:26:40;2.30;99.90
23323;DHT22;11833;52.554;13.554;2024-03-06T06:29:05;2.30;99.90
23323;DHT22;11833;52.554;13.554;2024-03-06T06:31:31;2.40;99.90
23323;DHT22;11833;52.554;13.554;2024-03-06T06:33:57;2.40;99.90
23323;DHT22;11833;52.554;13.554;2024-03-06T06:36:23;2.50;99.90
23323;DHT22;11833;52.554;13.554;2024-03-06T06:38:49;2.50;99.90
23323;DHT22;11833;52.554;13.554;2024-03-06T06:41:15;2.50;99.90
23323;DHT22;11833;52.554;13.554;2024-03-06T06:43:42;2.60;99.90
23323;DHT22;11833;52.554;13.554;2024-03-06T06:46:08;2.60;99.90
23323;DHT22;11833;52.554;13.554;2024-03-06T06:48:34;2.70;99.90
23323;DHT22;11833;52.554;13.554;2024-03-06T06:51:00;2.70;99.90
23323;DHT22;11833;52.554;13.554;2024-03-06T06:53:31;2.70;99.90
23323;DHT22;11833;52.554;13.554;2024-03-06T06:55:57;2.80;99.90
23323;DHT22;11833;52.554;13.554;2024-03-06T06:58:23;2.80;99.90
23323;DHT22;11833;52.554;13.554;2024-03-06T07:00:49;2.70;99.90
23323;DHT22;11833;52.554;13.554;2024-03-06T07:03:16;2.70;99.90
23323;DHT22;11833;52.554;13.554;2024-03-06T07:05:42;2.80;99.90
23323;DHT22;11833;52.554;13.554;2024-03-06T07:08:07;2.80;99.90
23323;DHT22;11833;52.554;13.554;2024-03-06T07:10:33;2.90;99.90
23323;DHT22;11833;52.554;13.554;2024-03-06T07:13:01;2.80;99.90
23323;DHT22;11833;52.554;13.554;2024-03-06T07:15:28;2.90;99.90
23323;DHT22;11833;52.554;13.554;2024-03-06T07:17:54;3.10;99.90
23323;DHT22;11833;52.554;13.554;2024-03-06T07:20:20;3.20;99.90
23323;DHT22;11833;52.554;13.554;2024-03-06T07:22:46;3.30;99.90
23323;DHT22;11833;52.554;13.554;2024-03-06T07:25:12;3.40;99.90
23323;DHT22;11833;52.554;13.554;2024-03-06T07:27:37;3.40;99.90
23323;DHT22;11833;52.554;13.554;2024-03-06T07:30:03;3.40;99.90
23323;DHT22;11833;52.554;13.554;2024-03-06T07:32:30;3.50;99.90
23323;DHT22;11833;52.554;13.554;2024-03-06T07:34:57;3.60;99.90
23323;DHT22;11833;52.554;13.554;2024-03-06T07:37:24;3.70;99.90
23323;DHT22;11833;52.554;13.554;2024-03-06T07:39:49;3.80;99.90
23323;DHT22;11833;52.554;13.554;2024-03-06T07:42:15;3.90;99.90
23323;DHT22;11833;52.554;13.554;2024-03-06T07:44:43;4.10;99.90
23323;DHT22;11833;52.554;13.554;2024-03-06T07:47:08;4.20;99.90
23323;DHT22;11833;52.554;13.554;2024-03-06T07:49:34;4.30;99.90
23323;DHT22;11833;52.554;13.554;2024-03-06T07:52:00;4.40;99.90
23323;DHT22;11833;52.554;13.554;2024-03-06T07:54:26;4.50;99.90
23323;DHT22;11833;52.554;13.554;2024-03-06T07:56:51;4.60;99.90
23323;DHT22;11833;52.554;13.554;2024-03-06T07:59:19;4.70;99.90
23323;DHT22;11833;52.554;13.554;2024-03-06T08:01:45;4.60;99.90
23323;DHT22;11833;52.554;13.554;2024-03-06T08:04:10;4.70;99.90
23323;DHT22;11833;52.554;13.554;2024-03-06T08:06:36;4.90;99.90
23323;DHT22;11833;52.554;13.554;2024-03-06T08:09:02;4.90;99.90
23323;DHT22;11833;52.554;13.554;2024-03-06T08:11:28;5.10;99.90
23323;DHT22;11833;52.554;13.554;2024-03-06T08:13:58;5.10;99.90
23323;DHT22;11833;52.554;13.554;2024-03-06T08:16:24;5.20;99.90
23323;DHT22;11833;52.554;13.554;2024-03-06T08:18:50;5.40;99.90
23323;DHT22;11833;52.554;13.554;2024-03-06T08:21:16;5.70;99.90
23323;DHT22;11833;52.554;13.554;2024-03-06T08:23:42;5.70;99.90
23323;DHT22;11833;52.554;13.554;2024-03-06T08:26:08;5.90;99.90
23323;DHT22;11833;52.554;13.554;2024-03-06T08:28:34;6.10;99.90
23323;DHT22;11833;52.554;13.554;2024-03-06T08:31:00;6.30;99.90
23323;DHT22;11833;52.554;13.554;2024-03-06T08:33:26;6.60;99.90
23323;DHT22;11833;52.554;13.554;2024-03-06T08:35:52;6.40;99.90
23323;DHT22;11833;52.554;13.554;2024-03-06T08:38:17;6.40;99.90
23323;DHT22;11833;52.554;13.554;2024-03-06T08:40:43;6.60;99.90
23323;DHT22;11833;52.554;13.554;2024-03-06T08:43:11;6.60;99.90
23323;DHT22;11833;52.554;13.554;2024-03-06T08:45:41;6.70;99.90
23323;DHT22;11833;52.554;13.554;2024-03-06T08:48:08;6.70;99.90
23323;DHT22;11833;52.554;13.554;2024-03-06T08:50:34;7.00;99.90
23323;DHT22;11833;52.554;13.554;2024-03-06T08:53:00;7.30;99.90
23323;DHT22;11833;52.554;13.554;2024-03-06T08:55:27;7.00;99.90
23323;DHT22;11833;52.554;13.554;2024-03-06T08:57:53;7.00;99.90
23323;DHT22;11833;52.554;13.554;2024-03-06T09:00:19;7.50;99.90
23323;DHT22;11833;52.554;13.554;2024-03-06T09:02:45;7.70;99.90
23323;DHT22;11833;52.554;13.554;2024-03-06T09:05:11;7.80;99.90
23323;DHT22;11833;52.554;13.554;2024-03-06T09:07:40;8.60;99.90
23323;DHT22;11833;52.554;13.554;2024-03-06T09:10:07;8.40;99.50
23323;DHT22;11833;52.554;13.554;2024-03-06T09:12:33;8.40;99.40
23323;DHT22;11833;52.554;13.554;2024-03-06T09:15:00;8.50;99.90
23323;DHT22;11833;52.554;13.554;2024-03-06T09:17:26;8.30;98.80
23323;DHT22;11833;52.554;13.554;2024-03-06T09:19:52;7.90;98.50
23323;DHT22;11833;52.554;13.554;2024-03-06T09:22:19;7.80;99.90
23323;DHT22;11833;52.554;13.554;2024-03-06T09:24:45;8.00;99.90
23323;DHT22;11833;52.554;13.554;2024-03-06T09:27:11;7.90;99.90
23323;DHT22;11833;52.554;13.554;2024-03-06T09:29:39;7.90;99.90
23323;DHT22;11833;52.554;13.554;2024-03-06T09:32:05;7.60;98.80
23323;DHT22;11833;52.554;13.554;2024-03-06T09:34:31;7.70;99.90
23323;DHT22;11833;52.554;13.554;2024-03-06T09:36:57;7.90;99.90
23323;DHT22;11833;52.554;13.554;2024-03-06T09:39:22;8.10;99.90
23323;DHT22;11833;52.554;13.554;2024-03-06T09:41:49;8.20;99.00
23323;DHT22;11833;52.554;13.554;2024-03-06T09:44:18;8.40;99.90
23323;DHT22;11833;52.554;13.554;2024-03-06T09:46:46;8.90;97.60
23323;DHT22;11833;52.554;13.554;2024-03-06T09:49:18;9.20;95.80
23323;DHT22;11833;52.554;13.554;2024-03-06T09:51:46;9.70;97.30
23323;DHT22;11833;52.554;13.554;2024-03-06T09:54:14;9.80;94.90
23323;DHT22;11833;52.554;13.554;2024-03-06T09:56:47;10.70;97.20
23323;DHT22;11833;52.554;13.554;2024-03-06T09:59:14;11.10;93.40
23323;DHT22;11833;52.554;13.554;2024-03-06T10:01:59;11.60;93.60
23323;DHT22;11833;52.554;13.554;2024-03-06T10:04:28;11.40;86.90
23323;DHT22;11833;52.554;13.554;2024-03-06T10:06:58;11.20;89.20
23323;DHT22;11833;52.554;13.554;2024-03-06T10:09:25;11.60;92.30
23323;DHT22;11833;52.554;13.554;2024-03-06T10:11:52;11.80;83.90
23323;DHT22;11833;52.554;13.554;2024-03-06T10:14:24;11.90;84.00
23323;DHT22;11833;52.554;13.554;2024-03-06T10:16:58;12.40;87.40
23323;DHT22;11833;52.554;13.554;2024-03-06T10:19:26;12.60;91.40
23323;DHT22;11833;52.554;13.554;2024-03-06T10:21:57;12.70;77.90
23323;DHT22;11833;52.554;13.554;2024-03-06T10:24:27;12.30;76.20
23323;DHT22;11833;52.554;13.554;2024-03-06T10:26:57;12.30;84.40
23323;DHT22;11833;52.554;13.554;2024-03-06T10:29:26;13.00;79.10
23323;DHT22;11833;52.554;13.554;2024-03-06T10:31:53;13.50;78.40
23323;DHT22;11833;52.554;13.554;2024-03-06T10:34:20;13.70;73.90
23323;DHT22;11833;52.554;13.554;2024-03-06T10:36:56;13.50;81.90
23323;DHT22;11833;52.554;13.554;2024-03-06T10:39:23;12.40;77.30
23323;DHT22;11833;52.554;13.554;2024-03-06T10:41:58;11.80;81.90
23323;DHT22;11833;52.554;13.554;2024-03-06T10:44:26;11.70;81.40
23323;DHT22;11833;52.554;13.554;2024-03-06T10:47:02;11.90;79.40
23323;DHT22;11833;52.554;13.554;2024-03-06T10:49:31;11.80;86.00
23323;DHT22;11833;52.554;13.554;2024-03-06T10:52:02;11.90;80.60
23323;DHT22;11833;52.554;13.554;2024-03-06T10:54:32;11.90;79.10
23323;DHT22;11833;52.554;13.554;2024-03-06T10:57:04;12.30;78.10
23323;DHT22;11833;52.554;13.554;2024-03-06T10:59:30;12.90;76.10
23323;DHT22;11833;52.554;13.554;2024-03-06T11:01:57;13.10;77.00
23323;DHT22;11833;52.554;13.554;2024-03-06T11:04:27;13.10;74.80
23323;DHT22;11833;52.554;13.554;2024-03-06T11:06:55;13.30;73.10
23323;DHT22;11833;52.554;13.554;2024-03-06T11:09:21;13.10;75.90
23323;DHT22;11833;52.554;13.554;2024-03-06T11:11:48;12.80;74.00
23323;DHT22;11833;52.554;13.554;2024-03-06T11:14:17;12.30;75.80
23323;DHT22;11833;52.554;13.554;2024-03-06T11:19:31;14.20;84.60
23323;DHT22;11833;52.554;13.554;2024-03-06T11:21:58;15.20;82.50
23323;DHT22;11833;52.554;13.554;2024-03-06T11:24:32;15.40;70.70
23323;DHT22;11833;52.554;13.554;2024-03-06T11:27:03;14.60;78.80
23323;DHT22;11833;52.554;13.554;2024-03-06T11:30:07;14.40;64.80
23323;DHT22;11833;52.554;13.554;2024-03-06T11:32:58;14.20;68.80
23323;DHT22;11833;52.554;13.554;2024-03-06T11:35:28;14.60;76.40
23323;DHT22;11833;52.554;13.554;2024-03-06T11:37:54;15.00;68.50
23323;DHT22;11833;52.554;13.554;2024-03-06T11:40:23;15.80;64.50
23323;DHT22;11833;52.554;13.554;2024-03-06T11:42:50;15.70;74.90
23323;DHT22;11833;52.554;13.554;2024-03-06T11:45:16;15.20;73.40
23323;DHT22;11833;52.554;13.554;2024-03-06T11:48:01;14.40;64.80
23323;DHT22;11833;52.554;13.554;2024-03-06T11:50:29;14.30;76.60
23323;DHT22;11833;52.554;13.554;2024-03-06T11:52:57;13.10;71.30
23323;DHT22;11833;52.554;13.554;2024-03-06T11:55:23;12.70;74.70
23323;DHT22;11833;52.554;13.554;2024-03-06T11:57:52;12.70;79.50
23323;DHT22;11833;52.554;13.554;2024-03-06T12:00:22;12.60;76.10
23323;DHT22;11833;52.554;13.554;2024-03-06T12:02:49;13.50;80.70
23323;DHT22;11833;52.554;13.554;2024-03-06T12:05:16;13.40;66.20
23323;DHT22;11833;52.554;13.554;2024-03-06T12:07:47;13.70;66.70
23323;DHT22;11833;52.554;13.554;2024-03-06T12:10:13;14.70;65.10
23323;DHT22;11833;52.554;13.554;2024-03-06T12:12:40;15.20;71.10
23323;DHT22;11833;52.554;13.554;2024-03-06T12:15:09;14.90;65.00
23323;DHT22;11833;52.554;13.554;2024-03-06T12:17:48;15.40;66.40
23323;DHT22;11833;52.554;13.554;2024-03-06T12:20:16;16.20;72.20
23323;DHT22;11833;52.554;13.554;2024-03-06T12:22:51;16.50;58.40
23323;DHT22;11833;52.554;13.554;2024-03-06T12:25:23;17.20;57.30
23323;DHT22;11833;52.554;13.554;2024-03-06T12:27:50;17.90;54.70
23323;DHT22;11833;52.554;13.554;2024-03-06T12:30:17;18.10;54.90
23323;DHT22;11833;52.554;13.554;2024-03-06T12:33:00;16.90;52.30
23323;DHT22;11833;52.554;13.554;2024-03-06T12:35:30;16.10;57.70
23323;DHT22;11833;52.554;13.554;2024-03-06T12:37:56;15.70;55.70
23323;DHT22;11833;52.554;13.554;2024-03-06T12:40:22;15.70;61.90
23323;DHT22;11833;52.554;13.554;2024-03-06T12:42:48;15.70;57.40
23323;DHT22;11833;52.554;13.554;2024-03-06T12:45:18;14.80;61.70
23323;DHT22;11833;52.554;13.554;2024-03-06T12:47:45;14.20;62.50
23323;DHT22;11833;52.554;13.554;2024-03-06T12:50:13;13.80;64.10
23323;DHT22;11833;52.554;13.554;2024-03-06T12:52:39;13.30;66.10
23323;DHT22;11833;52.554;13.554;2024-03-06T12:55:05;13.20;65.70
23323;DHT22;11833;52.554;13.554;2024-03-06T12:57:32;14.10;67.50
23323;DHT22;11833;52.554;13.554;2024-03-06T12:59:57;15.60;64.00
23323;DHT22;11833;52.554;13.554;2024-03-06T13:02:24;16.20;56.60
23323;DHT22;11833;52.554;13.554;2024-03-06T13:04:50;15.30;56.00
23323;DHT22;11833;52.554;13.554;2024-03-06T13:07:16;14.90;59.20
23323;DHT22;11833;52.554;13.554;2024-03-06T13:09:42;14.30;59.50
23323;DHT22;11833;52.554;13.554;2024-03-06T13:12:07;13.30;61.50
23323;DHT22;11833;52.554;13.554;2024-03-06T13:14:33;12.80;65.00
23323;DHT22;11833;52.554;13.554;2024-03-06T13:17:00;13.00;64.10
23323;DHT22;11833;52.554;13.554;2024-03-06T13:19:26;13.00;64.40
23323;DHT22;11833;52.554;13.554;2024-03-06T13:21:51;12.60;63.80
23323;DHT22;11833;52.554;13.554;2024-03-06T13:24:18;12.40;66.80
23323;DHT22;11833;52.554;13.554;2024-03-06T13:26:48;12.50;67.90
23323;DHT22;11833;52.554;13.554;2024-03-06T13:29:14;12.30;66.00
23323;DHT22;11833;52.554;13.554;2024-03-06T13:31:40;12.00;69.10
23323;DHT22;11833;52.554;13.554;2024-03-06T13:34:05;12.00;69.80
23323;DHT22;11833;52.554;13.554;2024-03-06T13:36:31;12.00;67.50
23323;DHT22;11833;52.554;13.554;2024-03-06T13:38:57;12.00;66.30
23323;DHT22;11833;52.554;13.554;2024-03-06T13:41:23;12.00;66.10
23323;DHT22;11833;52.554;13.554;2024-03-06T13:43:49;11.90;68.70
23323;DHT22;11833;52.554;13.554;2024-03-06T13:46:15;12.20;67.20
23323;DHT22;11833;52.554;13.554;2024-03-06T13:48:41;12.40;67.20
23323;DHT22;11833;52.554;13.554;2024-03-06T13:51:07;12.40;65.10
23323;DHT22;11833;52.554;13.554;2024-03-06T13:53:32;12.20;64.40
23323;DHT22;11833;52.554;13.554;2024-03-06T13:55:58;12.00;65.30
23323;DHT22;11833;52.554;13.554;2024-03-06T13:58:24;11.80;66.10
23323;DHT22;11833;52.554;13.554;2024-03-06T14:00:50;11.60;68.70
23323;DHT22;11833;52.554;13.554;2024-03-06T14:03:16;11.70;68.20
23323;DHT22;11833;52.554;13.554;2024-03-06T14:05:42;11.50;68.60
23323;DHT22;11833;52.554;13.554;2024-03-06T14:08:08;11.30;69.60
23323;DHT22;11833;52.554;13.554;2024-03-06T14:10:38;11.20;71.20
23323;DHT22;11833;52.554;13.554;2024-03-06T14:13:04;11.00;71.30
23323;DHT22;11833;52.554;13.554;2024-03-06T14:15:32;10.80;72.30
23323;DHT22;11833;52.554;13.554;2024-03-06T14:17:58;10.80;72.80
23323;DHT22;11833;52.554;13.554;2024-03-06T14:20:24;10.70;73.00
23323;DHT22;11833;52.554;13.554;2024-03-06T14:22:50;10.70;72.60
23323;DHT22;11833;52.554;13.554;2024-03-06T14:25:16;10.80;72.90
23323;DHT22;11833;52.554;13.554;2024-03-06T14:27:42;10.60;73.20
23323;DHT22;11833;52.554;13.554;2024-03-06T14:30:09;10.60;73.20
23323;DHT22;11833;52.554;13.554;2024-03-06T14:32:40;10.50;73.30
23323;DHT22;11833;52.554;13.554;2024-03-06T14:35:06;10.70;73.70
23323;DHT22;11833;52.554;13.554;2024-03-06T14:37:32;10.90;71.50
23323;DHT22;11833;52.554;13.554;2024-03-06T14:39:57;10.80;71.90
23323;DHT22;11833;52.554;13.554;2024-03-06T14:42:23;10.70;72.20
23323;DHT22;11833;52.554;13.554;2024-03-06T14:44:49;10.80;72.60
23323;DHT22;11833;52.554;13.554;2024-03-06T14:47:15;10.80;72.80
23323;DHT22;11833;52.554;13.554;2024-03-06T14:49:42;10.90;72.40
23323;DHT22;11833;52.554;13.554;2024-03-06T14:52:13;10.70;72.60
23323;DHT22;11833;52.554;13.554;2024-03-06T14:54:39;10.80;73.40
23323;DHT22;11833;52.554;13.554;2024-03-06T14:57:08;10.90;73.40
23323;DHT22;11833;52.554;13.554;2024-03-06T14:59:34;10.80;73.30
23323;DHT22;11833;52.554;13.554;2024-03-06T15:02:01;10.90;73.30
23323;DHT22;11833;52.554;13.554;2024-03-06T15:04:29;10.80;74.00
23323;DHT22;11833;52.554;13.554;2024-03-06T15:06:55;10.70;75.00
23323;DHT22;11833;52.554;13.554;2024-03-06T15:09:21;10.70;76.00
23323;DHT22;11833;52.554;13.554;2024-03-06T15:11:51;10.30;77.20
23323;DHT22;11833;52.554;13.554;2024-03-06T15:14:18;10.30;78.30
23323;DHT22;11833;52.554;13.554;2024-03-06T15:16:44;10.30;78.40
23323;DHT22;11833;52.554;13.554;2024-03-06T15:19:10;10.50;78.20
23323;DHT22;11833;52.554;13.554;2024-03-06T15:21:36;10.70;77.00
23323;DHT22;11833;52.554;13.554;2024-03-06T15:24:02;10.60;77.20
23323;DHT22;11833;52.554;13.554;2024-03-06T15:26:28;10.60;77.20